Time;durP1;ratioP1;P1;durP2;ratioP2;P2;SDS_P1;SDS_P2;PMS_P1;PMS_P2;Temp;Humidity;BMP_temperature;BMP_pressure;BME280_temperature;BME280_humidity;BME280_pressure;Samples;Min_cycle;Max_cycle;Signal;HPM_P1;HPM_P2
2023/03/09 00:01:53;;;;;;;;;;;;;;;;;;5041343;28;4504;-55
2023/03/09 00:04:18;;;;;;;;;;;;;;;;;;5041793;28;4542;-57
2023/03/09 00:06:43;;;;;;;;;;;;;;;;;;5048027;28;1205;-58
2023/03/09 00:09:09;;;;;;;;;;;;;;;;;;5044959;28;5005;-60
2023/03/09 00:11:34;;;;;;;;;;;;;;;;;;5041910;28;4423;-62
2023/03/09 00:13:59;;;;;;;;;;;;;;;;;;5041183;28;4507;-60
2023/03/09 00:16:25;;;;;;;;;;;;;;;;;;5047345;28;4679;-59
2023/03/09 00:18:51;;;;;;;;;;;;;;;;;;5047571;28;4878;-61
2023/03/09 00:21:36;;;;;;;;;;;;;;;;;;5043898;28;1140;-60
2023/03/09 00:24:04;;;;;;;;;;;;;;;;;;5044795;28;4499;-61
2023/03/09 00:26:30;;;;;;;;;;;;;;;;;;5040364;28;5013;-60
2023/03/09 00:28:55;;;;;;;;;;;;;;;;;;5044092;28;4660;-60
2023/03/09 00:31:20;;;;;;;;;;;;;;;;;;5045646;28;4542;-60
2023/03/09 00:33:49;;;;;;;;;;;;;;;;;;5047715;28;4691;-59
2023/03/09 00:36:14;;;;;;;;;;;;;;;;;;5045804;28;4857;-59
2023/03/09 00:38:40;;;;;;;;;;;;;;;;;;5040637;28;4470;-60
2023/03/09 00:41:05;;;;;;;;;;;;;;;;;;5041575;28;4526;-53
2023/03/09 00:43:30;;;;;;;;;;;;;;;;;;5045424;28;4620;-59
2023/03/09 00:45:55;;;;;;;;;;;;;;;;;;5045546;28;4482;-56
2023/03/09 00:48:21;;;;;;;;;;;;;;;;;;5045592;28;1161;-62
2023/03/09 00:50:46;;;;;;;;;;;;;;;;;;5042166;28;4785;-60
2023/03/09 00:53:11;;;;;;;;;;;;;;;;;;5046470;28;5117;-60
2023/03/09 00:55:36;;;;;;;;;;;;;;;;;;5051843;28;5866;-60
2023/03/09 00:58:02;;;;;;;;;;;;;;;;;;5040868;28;5033;-59
2023/03/09 01:00:27;;;;;;;;;;;;;;;;;;5040880;28;3085;-59
2023/03/09 01:02:53;;;;;;;;;;;;;;;;;;5043557;28;5132;-61
2023/03/09 01:05:19;;;;;;;;;;;;;;;;;;5037973;28;4719;-57
2023/03/09 01:07:44;;;;;;;;;;;;;;;;;;5040221;28;4466;-60
2023/03/09 01:10:10;;;;;;;;;;;;;;;;;;5040706;28;5015;-55
2023/03/09 01:12:36;;;;;;;;;;;;;;;;;;5041676;28;3208;-59
2023/03/09 01:15:01;;;;;;;;;;;;;;;;;;5040271;28;4430;-58
2023/03/09 01:17:26;;;;;;;;;;;;;;;;;;5076161;28;5000;-60
2023/03/09 01:19:51;;;;;;;;;;;;;;;;;;5040337;28;4628;-61
2023/03/09 01:22:17;;;;;;;;;;;;;;;;;;5038689;28;5154;-58
2023/03/09 01:24:42;;;;;;;;;;;;;;;;;;5047156;28;1237;-61
2023/03/09 01:27:07;;;;;;;;;;;;;;;;;;5037839;28;4404;-61
2023/03/09 01:29:33;;;;;;;;;;;;;;;;;;5034154;28;4740;-60
2023/03/09 01:31:58;;;;;;;;;;;;;;;;;;5035855;28;5142;-60
2023/03/09 01:34:23;;;;;;;;;;;;;;;;;;5041502;28;4757;-60
2023/03/09 01:36:48;;;;;;;;;;;;;;;;;;5037564;28;4944;-61
2023/03/09 01:39:14;;;;;;;;;;;;;;;;;;5040794;28;1520;-60
2023/03/09 01:41:39;;;;;;;;;;;;;;;;;;5041576;28;5142;-61
2023/03/09 01:44:04;;;;;;;;;;;;;;;;;;5040336;28;4609;-58
2023/03/09 01:46:30;;;;;;;;;;;;;;;;;;5040408;28;4989;-57
2023/03/09 01:49:14;;;;;;;;;;;;;;;;;;5037892;28;4810;-60
2023/03/09 01:51:39;;;;;;;;;;;;;;;;;;5039825;28;1203;-61
2023/03/09 01:54:04;;;;;;;;;;;;;;;;;;5036788;28;4573;-57
2023/03/09 01:56:30;;;;;;;;;;;;;;;;;;5044351;28;5060;-58
2023/03/09 01:58:55;;;;;;;;;;;;;;;;;;5040580;28;5720;-58
2023/03/09 02:01:20;;;;;;;;;;;;;;;;;;5043851;28;5049;-57
2023/03/09 02:03:46;;;;;;;;;;;;;;;;;;5040049;28;4934;-59
2023/03/09 02:06:13;;;;;;;;;;;;;;;;;;5038120;28;2183;-58
2023/03/09 02:08:39;;;;;;;;;;;;;;;;;;5046033;28;4443;-54
2023/03/09 02:11:05;;;;;;;;;;;;;;;;;;5040679;28;4678;-61
2023/03/09 02:13:33;;;;;;;;;;;;;;;;;;5048947;28;5690;-58
2023/03/09 02:15:58;;;;;;;;;;;;;;;;;;5049054;28;5143;-60
2023/03/09 02:18:24;;;;;;;;;;;;;;;;;;5042799;28;1084;-59
2023/03/09 02:21:28;;;;;;;;;;;;;;;;;;5039985;28;5404;-59
2023/03/09 02:23:53;;;;;;;;;;;;;;;;;;5039566;28;4442;-59
2023/03/09 02:26:21;;;;;;;;;;;;;;;;;;5046801;28;4633;-57
2023/03/09 02:28:46;;;;;;;;;;;;;;;;;;5026525;28;4976;-57
2023/03/09 02:31:12;;;;;;;;;;;;;;;;;;5040746;28;4712;-58
2023/03/09 02:33:37;;;;;;;;;;;;;;;;;;5040567;28;3598;-56
2023/03/09 02:36:02;;;;;;;;;;;;;;;;;;5038357;28;4718;-60
2023/03/09 02:38:28;;;;;;;;;;;;;;;;;;5042379;28;4612;-58
2023/03/09 02:40:54;;;;;;;;;;;;;;;;;;5039628;28;5293;-58
2023/03/09 02:43:19;;;;;;;;;;;;;;;;;;5047408;28;4527;-61
2023/03/09 02:45:45;;;;;;;;;;;;;;;;;;5040141;28;3513;-60
2023/03/09 02:48:10;;;;;;;;;;;;;;;;;;5039628;28;6442;-59
2023/03/09 02:50:36;;;;;;;;;;;;;;;;;;5040189;28;4781;-60
2023/03/09 02:53:02;;;;;;;;;;;;;;;;;;5043349;28;4493;-60
2023/03/09 02:55:27;;;;;;;;;;;;;;;;;;5043472;28;5145;-58
2023/03/09 02:57:52;;;;;;;;;;;;;;;;;;5043719;28;4687;-62
2023/03/09 03:00:21;;;;;;;;;;;;;;;;;;5037913;28;3465;-56
2023/03/09 03:02:46;;;;;;;;;;;;;;;;;;5049592;28;4766;-59
2023/03/09 03:05:11;;;;;;;;;;;;;;;;;;5037283;28;5059;-55
2023/03/09 03:07:37;;;;;;;;;;;;;;;;;;5047722;28;5049;-57
2023/03/09 03:10:02;;;;;;;;;;;;;;;;;;5037865;28;4620;-59
2023/03/09 03:12:27;;;;;;;;;;;;;;;;;;5044612;28;3225;-58
2023/03/09 03:14:52;;;;;;;;;;;;;;;;;;5041413;28;4596;-55
2023/03/09 03:17:18;;;;;;;;;;;;;;;;;;5047283;28;4482;-60
2023/03/09 03:19:43;;;;;;;;;;;;;;;;;;5042571;28;4534;-59
2023/03/09 03:22:08;;;;;;;;;;;;;;;;;;5043043;28;4677;-58
2023/03/09 03:24:37;;;;;;;;;;;;;;;;;;5049158;28;1366;-59
2023/03/09 03:27:02;;;;;;;;;;;;;;;;;;5042622;28;4464;-57
2023/03/09 03:29:27;;;;;;;;;;;;;;;;;;5045591;28;4474;-59
2023/03/09 03:31:53;;;;;;;;;;;;;;;;;;5046716;28;5200;-58
2023/03/09 03:34:18;;;;;;;;;;;;;;;;;;5038876;28;4541;-58
2023/03/09 03:36:43;;;;;;;;;;;;;;;;;;5039234;28;4820;-59
2023/03/09 03:39:09;;;;;;;;;;;;;;;;;;5046331;28;4646;-59
2023/03/09 03:41:34;;;;;;;;;;;;;;;;;;5038417;28;4964;-59
2023/03/09 03:43:59;;;;;;;;;;;;;;;;;;5045410;28;5065;-59
2023/03/09 03:46:25;;;;;;;;;;;;;;;;;;5045519;28;4471;-60
2023/03/09 03:48:50;;;;;;;;;;;;;;;;;;5046254;28;4503;-59
2023/03/09 03:51:15;;;;;;;;;;;;;;;;;;5038995;28;1981;-61
2023/03/09 03:53:41;;;;;;;;;;;;;;;;;;5042838;28;5076;-60
2023/03/09 03:56:06;;;;;;;;;;;;;;;;;;5042713;28;5490;-60
2023/03/09 03:58:31;;;;;;;;;;;;;;;;;;5042225;28;4828;-60
2023/03/09 04:00:57;;;;;;;;;;;;;;;;;;5041727;28;4529;-61
2023/03/09 04:03:22;;;;;;;;;;;;;;;;;;5042803;28;2014;-60
2023/03/09 04:05:47;;;;;;;;;;;;;;;;;;5034766;28;4466;-59
2023/03/09 04:08:13;;;;;;;;;;;;;;;;;;5041740;28;4950;-60
2023/03/09 04:10:38;;;;;;;;;;;;;;;;;;5043947;28;5420;-61
2023/03/09 04:13:04;;;;;;;;;;;;;;;;;;5042698;28;4502;-57
2023/03/09 04:15:29;;;;;;;;;;;;;;;;;;5044787;28;3316;-54
2023/03/09 04:17:54;;;;;;;;;;;;;;;;;;5040023;28;4435;-59
2023/03/09 04:20:19;;;;;;;;;;;;;;;;;;5042013;28;4466;-58
2023/03/09 04:22:47;;;;;;;;;;;;;;;;;;5044920;28;4644;-58
2023/03/09 04:25:12;;;;;;;;;;;;;;;;;;5046816;28;4676;-58
2023/03/09 04:27:37;;;;;;;;;;;;;;;;;;5043688;28;1092;-58
2023/03/09 04:30:03;;;;;;;;;;;;;;;;;;5045891;28;5167;-61
2023/03/09 04:32:28;;;;;;;;;;;;;;;;;;5046843;28;4947;-54
2023/03/09 04:34:53;;;;;;;;;;;;;;;;;;5042878;28;4715;-62
2023/03/09 04:37:19;;;;;;;;;;;;;;;;;;5044634;28;4915;-58
2023/03/09 04:39:44;;;;;;;;;;;;;;;;;;5035866;28;1373;-59
2023/03/09 04:42:09;;;;;;;;;;;;;;;;;;5034205;28;4407;-56
2023/03/09 04:44:34;;;;;;;;;;;;;;;;;;5041108;28;4740;-59
2023/03/09 04:47:00;;;;;;;;;;;;;;;;;;5040418;28;5306;-55
2023/03/09 04:49:26;;;;;;;;;;;;;;;;;;5045066;28;4557;-58
2023/03/09 04:51:51;;;;;;;;;;;;;;;;;;5047129;28;5073;-59
2023/03/09 04:54:16;;;;;;;;;;;;;;;;;;5034196;28;1233;-60
2023/03/09 04:56:42;;;;;;;;;;;;;;;;;;5047319;28;5214;-60
2023/03/09 04:59:07;;;;;;;;;;;;;;;;;;5044266;28;5132;-60
2023/03/09 05:01:32;;;;;;;;;;;;;;;;;;5046066;28;4553;-58
2023/03/09 05:03:57;;;;;;;;;;;;;;;;;;5045905;28;4507;-60
2023/03/09 05:06:23;;;;;;;;;;;;;;;;;;5041928;28;3194;-62
2023/03/09 05:08:48;;;;;;;;;;;;;;;;;;5036669;28;4538;-58
2023/03/09 05:11:13;;;;;;;;;;;;;;;;;;5045009;28;5028;-59
2023/03/09 05:13:39;;;;;;;;;;;;;;;;;;5046524;28;5097;-62
2023/03/09 05:16:07;;;;;;;;;;;;;;;;;;5040246;28;4637;-58
2023/03/09 05:18:32;;;;;;;;;;;;;;;;;;5045472;28;3235;-59
2023/03/09 05:20:58;;;;;;;;;;;;;;;;;;5041006;28;4544;-61
2023/03/09 05:23:23;;;;;;;;;;;;;;;;;;5042943;28;4611;-60
2023/03/09 05:25:55;;;;;;;;;;;;;;;;;;5043000;28;4479;-57
2023/03/09 05:28:20;;;;;;;;;;;;;;;;;;5039971;28;5028;-59
2023/03/09 05:30:45;;;;;;;;;;;;;;;;;;5044083;28;1926;-57
2023/03/09 05:33:11;;;;;;;;;;;;;;;;;;5041952;28;4578;-57
2023/03/09 05:35:36;;;;;;;;;;;;;;;;;;5034638;28;4610;-58
2023/03/09 05:38:01;;;;;;;;;;;;;;;;;;5041134;28;4924;-58
2023/03/09 05:40:26;;;;;;;;;;;;;;;;;;5045319;28;4695;-60
2023/03/09 05:42:52;;;;;;;;;;;;;;;;;;5041401;28;4512;-59
2023/03/09 05:45:17;;;;;;;;;;;;;;;;;;5041584;28;1205;-60
2023/03/09 05:47:43;;;;;;;;;;;;;;;;;;5036935;28;4495;-62
2023/03/09 05:50:08;;;;;;;;;;;;;;;;;;5042584;28;4499;-61
2023/03/09 05:52:34;;;;;;;;;;;;;;;;;;5047132;28;5025;-61
2023/03/09 05:54:59;;;;;;;;;;;;;;;;;;5043385;28;5170;-60
2023/03/09 05:57:24;;;;;;;;;;;;;;;;;;5044658;28;1096;-55
2023/03/09 05:59:49;;;;;;;;;;;;;;;;;;5050249;28;4768;-61
2023/03/09 06:02:14;;;;;;;;;;;;;;;;;;5042036;28;4972;-60
2023/03/09 06:04:40;;;;;;;;;;;;;;;;;;5041084;28;5028;-60
2023/03/09 06:07:05;;;;;;;;;;;;;;;;;;5040940;28;4689;-59
2023/03/09 06:09:30;;;;;;;;;;;;;;;;;;5035329;28;2005;-59
2023/03/09 06:11:56;;;;;;;;;;;;;;;;;;5047494;28;4481;-58
2023/03/09 06:14:21;;;;;;;;;;;;;;;;;;5041437;28;4954;-58
2023/03/09 06:16:46;;;;;;;;;;;;;;;;;;5037841;28;5142;-57
2023/03/09 06:19:11;;;;;;;;;;;;;;;;;;5047341;28;5238;-59
2023/03/09 06:21:37;;;;;;;;;;;;;;;;;;5035519;28;3283;-60
2023/03/09 06:24:02;;;;;;;;;;;;;;;;;;5046716;28;4404;-59
2023/03/09 06:26:27;;;;;;;;;;;;;;;;;;5044018;28;4467;-60
2023/03/09 06:28:53;;;;;;;;;;;;;;;;;;5049066;28;4462;-62
2023/03/09 06:31:18;;;;;;;;;;;;;;;;;;5041137;28;4695;-57
2023/03/09 06:33:44;;;;;;;;;;;;;;;;;;5035377;28;3317;-59
2023/03/09 06:36:09;;;;;;;;;;;;;;;;;;5035615;28;4881;-61
2023/03/09 06:38:35;;;;;;;;;;;;;;;;;;5047977;28;5114;-62
2023/03/09 06:41:00;;;;;;;;;;;;;;;;;;5044486;28;5169;-61
2023/03/09 06:43:25;;;;;;;;;;;;;;;;;;5046636;28;5072;-70
2023/03/09 06:45:50;;;;;;;;;;;;;;;;;;5049411;28;4547;-68
2023/03/09 06:48:16;;;;;;;;;;;;;;;;;;5048174;28;3089;-65
2023/03/09 06:50:41;;;;;;;;;;;;;;;;;;5048175;28;5111;-65
2023/03/09 06:53:06;;;;;;;;;;;;;;;;;;5047551;28;4687;-67
2023/03/09 06:55:32;;;;;;;;;;;;;;;;;;5040911;28;4507;-68
2023/03/09 06:57:57;;;;;;;;;;;;;;;;;;5051141;28;4621;-67
2023/03/09 07:00:22;;;;;;;;;;;;;;;;;;5040111;28;1265;-68
2023/03/09 07:02:48;;;;;;;;;;;;;;;;;;5047968;28;4450;-68
2023/03/09 07:05:13;;;;;;;;;;;;;;;;;;5047523;28;4811;-67
2023/03/09 07:07:39;;;;;;;;;;;;;;;;;;5046242;28;4656;-67
2023/03/09 07:10:05;;;;;;;;;;;;;;;;;;5041965;28;4860;-68
2023/03/09 07:12:30;;;;;;;;;;;;;;;;;;5049292;28;1227;-68
2023/03/09 07:14:55;;;;;;;;;;;;;;;;;;5040058;28;4479;-67
2023/03/09 07:17:20;;;;;;;;;;;;;;;;;;5048501;28;5076;-68
2023/03/09 07:19:46;;;;;;;;;;;;;;;;;;5043703;28;4488;-68
2023/03/09 07:22:11;;;;;;;;;;;;;;;;;;5047235;28;4834;-68
2023/03/09 07:24:37;;;;;;;;;;;;;;;;;;5045437;28;2275;-69
2023/03/09 07:27:02;;;;;;;;;;;;;;;;;;5040273;28;4751;-68
2023/03/09 07:29:27;;;;;;;;;;;;;;;;;;5046112;28;4659;-68
2023/03/09 07:31:53;;;;;;;;;;;;;;;;;;5045534;28;5065;-68
2023/03/09 07:34:18;;;;;;;;;;;;;;;;;;5046630;28;4471;-67
2023/03/09 07:36:43;;;;;;;;;;;;;;;;;;5040212;28;1233;-68
2023/03/09 07:39:09;;;;;;;;;;;;;;;;;;5040686;28;4498;-64
2023/03/09 07:41:34;;;;;;;;;;;;;;;;;;4991934;28;1393307;-67
2023/03/09 07:43:59;;;;;;;;;;;;;;;;;;5045010;28;4539;-67
2023/03/09 07:46:24;;;;;;;;;;;;;;;;;;5047858;28;4436;-64
2023/03/09 07:48:51;;;;;;;;;;;;;;;;;;5049016;28;5161;-69
2023/03/09 07:51:16;;;;;;;;;;;;;;;;;;5049165;28;2352;-67
2023/03/09 07:53:42;;;;;;;;;;;;;;;;;;5048546;28;4392;-67
2023/03/09 07:56:07;;;;;;;;;;;;;;;;;;5046719;28;5865;-67
2023/03/09 07:58:33;;;;;;;;;;;;;;;;;;5048358;28;4627;-67
2023/03/09 08:00:59;;;;;;;;;;;;;;;;;;5048583;28;5072;-68
2023/03/09 08:03:24;;;;;;;;;;;;;;;;;;5048784;28;1141;-67
2023/03/09 08:05:49;;;;;;;;;;;;;;;;;;5048692;28;4396;-69
2023/03/09 08:08:15;;;;;;;;;;;;;;;;;;5048294;28;4600;-67
2023/03/09 08:10:45;;;;;;;;;;;;;;;;;;5043203;28;4761;-67
2023/03/09 08:13:11;;;;;;;;;;;;;;;;;;5046646;28;5198;-67
2023/03/09 08:15:36;;;;;;;;;;;;;;;;;;5046621;28;1195;-68
2023/03/09 08:18:01;;;;;;;;;;;;;;;;;;5045018;28;4578;-66
2023/03/09 08:20:26;;;;;;;;;;;;;;;;;;5047229;28;5122;-68
2023/03/09 08:22:52;;;;;;;;;;;;;;;;;;5048003;28;4968;-70
2023/03/09 08:25:17;;;;;;;;;;;;;;;;;;5043783;28;5031;-69
2023/03/09 08:27:43;;;;;;;;;;;;;;;;;;5041901;28;1285;-68
2023/03/09 08:30:09;;;;;;;;;;;;;;;;;;5036673;28;4541;-67
2023/03/09 08:32:34;;;;;;;;;;;;;;;;;;5043417;28;4569;-69
2023/03/09 08:34:59;;;;;;;;;;;;;;;;;;5041495;28;4733;-68
2023/03/09 08:37:25;;;;;;;;;;;;;;;;;;5040866;28;4864;-67
2023/03/09 08:39:51;;;;;;;;;;;;;;;;;;5044392;28;4529;-69
2023/03/09 08:42:16;;;;;;;;;;;;;;;;;;5037336;28;1387;-67
2023/03/09 08:44:42;;;;;;;;;;;;;;;;;;5043442;28;4596;-63
2023/03/09 08:47:07;;;;;;;;;;;;;;;;;;5039275;28;4452;-67
2023/03/09 08:49:32;;;;;;;;;;;;;;;;;;5046128;28;4446;-67
2023/03/09 08:51:57;;;;;;;;;;;;;;;;;;5038463;28;4669;-67
2023/03/09 08:54:23;;;;;;;;;;;;;;;;;;5044071;28;1257;-67
2023/03/09 08:56:48;;;;;;;;;;;;;;;;;;5043535;28;5070;-66
2023/03/09 08:59:13;;;;;;;;;;;;;;;;;;5040038;28;5026;-66
2023/03/09 09:01:38;;;;;;;;;;;;;;;;;;5039383;28;4501;-66
2023/03/09 09:04:04;;;;;;;;;;;;;;;;;;5038317;28;4997;-65
2023/03/09 09:06:29;;;;;;;;;;;;;;;;;;5039784;28;3048;-65
2023/03/09 09:08:54;;;;;;;;;;;;;;;;;;5041843;28;4770;-64
2023/03/09 09:11:20;;;;;;;;;;;;;;;;;;5037277;28;5213;-65
2023/03/09 09:13:45;;;;;;;;;;;;;;;;;;5037610;28;4972;-64
2023/03/09 09:16:11;;;;;;;;;;;;;;;;;;5039898;28;5178;-65
2023/03/09 09:18:36;;;;;;;;;;;;;;;;;;5037792;28;3222;-65
2023/03/09 09:21:07;;;;;;;;;;;;;;;;;;5017432;28;4487;-66
2023/03/09 09:23:33;;;;;;;;;;;;;;;;;;5041343;28;4490;-65
2023/03/09 09:25:58;;;;;;;;;;;;;;;;;;5042615;28;4633;-65
2023/03/09 09:28:24;;;;;;;;;;;;;;;;;;5040093;28;4836;-66
2023/03/09 09:30:53;;;;;;;;;;;;;;;;;;5033549;28;4490;-66
2023/03/09 09:33:18;;;;;;;;;;;;;;;;;;5033438;28;1420;-66
2023/03/09 09:35:53;;;;;;;;;;;;;;;;;;5037807;28;4983;-65
2023/03/09 09:38:18;;;;;;;;;;;;;;;;;;5035481;28;4547;-65
2023/03/09 09:40:43;;;;;;;;;;;;;;;;;;5037238;28;4640;-65
2023/03/09 09:43:09;;;;;;;;;;;;;;;;;;5044292;28;5001;-66
2023/03/09 09:45:34;;;;;;;;;;;;;;;;;;5071178;28;1224;-66
2023/03/09 09:48:00;;;;;;;;;;;;;;;;;;5040198;28;4992;-67
2023/03/09 09:50:31;;;;;;;;;;;;;;;;;;5032567;28;5016;-63
2023/03/09 09:52:59;;;;;;;;;;;;;;;;;;5043076;28;4484;-63
2023/03/09 09:55:42;;;;;;;;;;;;;;;;;;5045791;28;4558;-63
2023/03/09 09:58:08;;;;;;;;;;;;;;;;;;5039729;28;4505;-63
2023/03/09 10:00:39;;;;;;;;;;;;;;;;;;5042654;28;1131;-64
2023/03/09 10:03:24;;;;;;;;;;;;;;;;;;5039180;28;5025;-64
2023/03/09 10:05:56;;;;;;;;;;;;;;;;;;5040566;28;4542;-65
2023/03/09 10:08:40;;;;;;;;;;;;;;;;;;5034011;28;4462;-65
2023/03/09 10:11:05;;;;;;;;;;;;;;;;;;5032182;28;4455;-64
2023/03/09 10:13:32;;;;;;;;;;;;;;;;;;5041296;28;4427;-65
2023/03/09 10:16:01;;;;;;;;;;;;;;;;;;5038046;28;5432;-65
2023/03/09 10:18:48;;;;;;;;;;;;;;;;;;5075937;28;2204;-64
2023/03/09 10:21:15;;;;;;;;;;;;;;;;;;5036512;28;6285;-66
2023/03/09 10:23:41;;;;;;;;;;;;;;;;;;5038716;28;4487;-67
2023/03/09 10:26:29;;;;;;;;;;;;;;;;;;5035894;28;4745;-67
2023/03/09 10:28:56;;;;;;;;;;;;;;;;;;5033398;28;4493;-67
2023/03/09 10:31:33;;;;;;;;;;;;;;;;;;5031223;28;5021;-67
2023/03/09 10:33:58;;;;;;;;;;;;;;;;;;5038988;28;4691;-67
2023/03/09 10:36:26;;;;;;;;;;;;;;;;;;5033253;28;4814;-63
2023/03/09 10:38:51;;;;;;;;;;;;;;;;;;5040550;28;4526;-61
2023/03/09 10:41:17;;;;;;;;;;;;;;;;;;5045746;28;4513;-66
2023/03/09 10:43:42;;;;;;;;;;;;;;;;;;5046936;28;5020;-66
2023/03/09 10:46:26;;;;;;;;;;;;;;;;;;5042271;28;4708;-66
2023/03/09 10:49:27;;;;;;;;;;;;;;;;;;5037016;28;4620;-56
2023/03/09 10:51:58;;;;;;;;;;;;;;;;;;5027758;28;4692;-58
2023/03/09 10:54:24;;;;;;;;;;;;;;;;;;5030927;28;3314;-59
2023/03/09 10:56:51;;;;;;;;;;;;;;;;;;5029175;28;4642;-60
2023/03/09 10:59:26;;;;;;;;;;;;;;;;;;5033186;28;4676;-62
2023/03/09 11:01:53;;;;;;;;;;;;;;;;;;5033899;28;4674;-61
2023/03/09 11:04:21;;;;;;;;;;;;;;;;;;5029748;28;4648;-67
2023/03/09 11:06:50;;;;;;;;;;;;;;;;;;5032320;28;3520;-66
2023/03/09 11:09:19;;;;;;;;;;;;;;;;;;5009866;28;5365;-58
2023/03/09 11:11:45;;;;;;;;;;;;;;;;;;5059535;28;4777;-58
2023/03/09 11:14:31;;;;;;;;;;;;;;;;;;5028547;28;5019;-58
2023/03/09 11:16:57;;;;;;;;;;;;;;;;;;5030106;28;4492;-60
2023/03/09 11:19:22;;;;;;;;;;;;;;;;;;5031083;28;4512;-60
2023/03/09 11:21:50;;;;;;;;;;;;;;;;;;5029717;28;5199;-54
2023/03/09 11:24:16;;;;;;;;;;;;;;;;;;5029959;28;3514;-56
2023/03/09 11:27:01;;;;;;;;;;;;;;;;;;5032219;28;4769;-57
2023/03/09 11:29:29;;;;;;;;;;;;;;;;;;5025320;28;4664;-58
2023/03/09 11:31:54;;;;;;;;;;;;;;;;;;5030713;28;5350;-58
2023/03/09 11:34:23;;;;;;;;;;;;;;;;;;5034944;28;5093;-55
2023/03/09 11:36:50;;;;;;;;;;;;;;;;;;5033934;28;4820;-56
2023/03/09 11:39:19;;;;;;;;;;;;;;;;;;5030595;28;3728;-59
2023/03/09 11:41:45;;;;;;;;;;;;;;;;;;5031762;28;4859;-60
2023/03/09 11:44:28;;;;;;;;;;;;;;;;;;5029903;28;5179;-52
2023/03/09 11:46:54;;;;;;;;;;;;;;;;;;5030598;28;4496;-61
2023/03/09 11:49:20;;;;;;;;;;;;;;;;;;5027904;28;4857;-62
2023/03/09 11:51:49;;;;;;;;;;;;;;;;;;5026418;28;3407;-66
2023/03/09 11:54:14;;;;;;;;;;;;;;;;;;5029154;28;5261;-61
2023/03/09 11:56:40;;;;;;;;;;;;;;;;;;5030616;28;4734;-60
2023/03/09 11:59:18;;;;;;;;;;;;;;;;;;5029920;28;4658;-63
2023/03/09 12:02:04;;;;;;;;;;;;;;;;;;5031659;28;4538;-58
2023/03/09 12:04:29;;;;;;;;;;;;;;;;;;5032668;28;4453;-62
2023/03/09 12:06:55;;;;;;;;;;;;;;;;;;5034457;28;4560;-58
2023/03/09 12:09:32;;;;;;;;;;;;;;;;;;5030849;28;3141;-62
2023/03/09 12:12:06;;;;;;;;;;;;;;;;;;5029603;28;5182;-66
2023/03/09 12:14:33;;;;;;;;;;;;;;;;;;5032618;28;4952;-69
2023/03/09 12:17:00;;;;;;;;;;;;;;;;;;5061360;28;5023;-61
2023/03/09 12:19:29;;;;;;;;;;;;;;;;;;5030142;28;4743;-64
2023/03/09 12:22:17;;;;;;;;;;;;;;;;;;5014172;28;4571;-61
2023/03/09 12:25:06;;;;;;;;;;;;;;;;;;5027897;28;3471;-61
2023/03/09 12:27:32;;;;;;;;;;;;;;;;;;5028923;28;5062;-63
2023/03/09 12:29:58;;;;;;;;;;;;;;;;;;5024616;28;4632;-62
2023/03/09 12:32:26;;;;;;;;;;;;;;;;;;5031539;28;4415;-64
2023/03/09 12:34:52;;;;;;;;;;;;;;;;;;5038030;28;5268;-67
2023/03/09 12:37:38;;;;;;;;;;;;;;;;;;5030813;28;4949;-65
2023/03/09 12:40:15;;;;;;;;;;;;;;;;;;5032369;28;4642;-66
2023/03/09 12:42:41;;;;;;;;;;;;;;;;;;5034380;28;1439;-59
2023/03/09 12:45:14;;;;;;;;;;;;;;;;;;5062410;28;4479;-65
2023/03/09 12:47:46;;;;;;;;;;;;;;;;;;5030723;28;4443;-61
2023/03/09 12:50:23;;;;;;;;;;;;;;;;;;5067001;28;4509;-61
2023/03/09 12:52:49;;;;;;;;;;;;;;;;;;5029503;28;4429;-59
2023/03/09 12:55:14;;;;;;;;;;;;;;;;;;5037812;28;4509;-60
2023/03/09 12:57:40;;;;;;;;;;;;;;;;;;5031970;28;3529;-59
2023/03/09 13:00:31;;;;;;;;;;;;;;;;;;5027960;28;4482;-59
2023/03/09 13:03:01;;;;;;;;;;;;;;;;;;5034113;28;4581;-64
2023/03/09 13:05:27;;;;;;;;;;;;;;;;;;5028351;28;5036;-62
2023/03/09 13:08:02;;;;;;;;;;;;;;;;;;5029459;28;4468;-62
2023/03/09 13:10:29;;;;;;;;;;;;;;;;;;5031399;28;4801;-64
2023/03/09 13:12:55;;;;;;;;;;;;;;;;;;5017884;28;4881;-60
2023/03/09 13:15:25;;;;;;;;;;;;;;;;;;5043435;28;1191;-64
2023/03/09 13:18:04;;;;;;;;;;;;;;;;;;5041085;28;4442;-61
2023/03/09 13:20:36;;;;;;;;;;;;;;;;;;5035581;28;4500;-59
2023/03/09 13:23:14;;;;;;;;;;;;;;;;;;5045265;28;4484;-59
2023/03/09 13:25:50;;;;;;;;;;;;;;;;;;5045854;28;4759;-60
2023/03/09 13:28:28;;;;;;;;;;;;;;;;;;5038729;28;4521;-60
2023/03/09 13:30:55;;;;;;;;;;;;;;;;;;5038468;28;4830;-60
2023/03/09 13:33:26;;;;;;;;;;;;;;;;;;5033225;28;1152;-60
2023/03/09 13:35:58;;;;;;;;;;;;;;;;;;5028981;28;4425;-60
2023/03/09 13:38:28;;;;;;;;;;;;;;;;;;5038375;28;5120;-60
2023/03/09 13:40:54;;;;;;;;;;;;;;;;;;5038061;28;4679;-61
2023/03/09 13:43:27;;;;;;;;;;;;;;;;;;5060347;28;4463;-60
2023/03/09 13:46:02;;;;;;;;;;;;;;;;;;5074801;28;4916;-60
2023/03/09 13:48:28;;;;;;;;;;;;;;;;;;5044429;28;1776;-58
2023/03/09 13:50:53;;;;;;;;;;;;;;;;;;5046534;28;4411;-61
2023/03/09 13:53:23;;;;;;;;;;;;;;;;;;5044070;28;5046;-61
2023/03/09 13:55:58;;;;;;;;;;;;;;;;;;5046590;28;4488;-60
2023/03/09 13:58:26;;;;;;;;;;;;;;;;;;5045769;28;4625;-60
2023/03/09 14:00:53;;;;;;;;;;;;;;;;;;5030508;28;4642;-60
2023/03/09 14:03:19;;;;;;;;;;;;;;;;;;5042049;28;1333;-60
2023/03/09 14:05:54;;;;;;;;;;;;;;;;;;5042369;28;4672;-60
2023/03/09 14:08:20;;;;;;;;;;;;;;;;;;5076971;28;5043;-59
2023/03/09 14:10:45;;;;;;;;;;;;;;;;;;5038585;28;4634;-60
2023/03/09 14:13:19;;;;;;;;;;;;;;;;;;5044778;28;4587;-61
2023/03/09 14:15:46;;;;;;;;;;;;;;;;;;5036858;28;1146;-60
2023/03/09 14:18:50;;;;;;;;;;;;;;;;;;5046306;28;4700;-59
2023/03/09 14:21:23;;;;;;;;;;;;;;;;;;5044424;28;4495;-60
2023/03/09 14:23:48;;;;;;;;;;;;;;;;;;5046813;28;4898;-60
2023/03/09 14:26:21;;;;;;;;;;;;;;;;;;5046875;28;4616;-61
2023/03/09 14:29:03;;;;;;;;;;;;;;;;;;5037419;28;4559;-60
2023/03/09 14:31:29;;;;;;;;;;;;;;;;;;5042428;28;4688;-59
2023/03/09 14:33:58;;;;;;;;;;;;;;;;;;5047180;28;4559;-59
2023/03/09 14:36:24;;;;;;;;;;;;;;;;;;5040292;28;4818;-58
2023/03/09 14:38:55;;;;;;;;;;;;;;;;;;5043180;28;5163;-56
2023/03/09 14:41:21;;;;;;;;;;;;;;;;;;5041747;28;4544;-62
2023/03/09 14:43:47;;;;;;;;;;;;;;;;;;5044047;28;4616;-60
2023/03/09 14:46:22;;;;;;;;;;;;;;;;;;5044638;28;4668;-59
2023/03/09 14:48:48;;;;;;;;;;;;;;;;;;5039656;28;4665;-52
2023/03/09 14:51:39;;;;;;;;;;;;;;;;;;5040907;28;1918;-54
2023/03/09 14:54:08;;;;;;;;;;;;;;;;;;5044723;28;5040;-51
2023/03/09 14:56:33;;;;;;;;;;;;;;;;;;5038317;28;4785;-59
2023/03/09 14:59:00;;;;;;;;;;;;;;;;;;5043632;28;4618;-57
2023/03/09 15:01:25;;;;;;;;;;;;;;;;;;5045052;28;4762;-63
2023/03/09 15:03:50;;;;;;;;;;;;;;;;;;5038646;28;5140;-51
2023/03/09 15:06:16;;;;;;;;;;;;;;;;;;5035189;28;3319;-54
2023/03/09 15:08:41;;;;;;;;;;;;;;;;;;5047258;28;4527;-56
2023/03/09 15:11:07;;;;;;;;;;;;;;;;;;5041362;28;4537;-64
2023/03/09 15:13:32;;;;;;;;;;;;;;;;;;5035483;28;4733;-55
2023/03/09 15:15:57;;;;;;;;;;;;;;;;;;5047484;28;5136;-56
2023/03/09 15:18:23;;;;;;;;;;;;;;;;;;5047570;28;3429;-53
2023/03/09 15:20:48;;;;;;;;;;;;;;;;;;5038657;28;5059;-60
2023/03/09 15:23:14;;;;;;;;;;;;;;;;;;5042063;28;5092;-65
2023/03/09 15:25:41;;;;;;;;;;;;;;;;;;5040076;28;5066;-66
2023/03/09 15:28:06;;;;;;;;;;;;;;;;;;5037699;28;4638;-62
2023/03/09 15:30:31;;;;;;;;;;;;;;;;;;5039748;28;3250;-62
2023/03/09 15:32:56;;;;;;;;;;;;;;;;;;5039990;28;4484;-72
2023/03/09 15:35:22;;;;;;;;;;;;;;;;;;5032565;28;4711;-69
2023/03/09 15:37:47;;;;;;;;;;;;;;;;;;5035548;28;5072;-69
2023/03/09 15:40:13;;;;;;;;;;;;;;;;;;5034508;28;4667;-65
2023/03/09 15:42:39;;;;;;;;;;;;;;;;;;5043989;28;3215;-64
2023/03/09 15:45:04;;;;;;;;;;;;;;;;;;5045754;28;4624;-63
2023/03/09 15:47:30;;;;;;;;;;;;;;;;;;5038469;28;5386;-68
2023/03/09 15:49:55;;;;;;;;;;;;;;;;;;5039058;28;4514;-65
2023/03/09 15:52:20;;;;;;;;;;;;;;;;;;5035375;28;4498;-65
2023/03/09 15:54:45;;;;;;;;;;;;;;;;;;5033090;28;3499;-70
2023/03/09 15:57:11;;;;;;;;;;;;;;;;;;5032875;28;4961;-68
2023/03/09 15:59:36;;;;;;;;;;;;;;;;;;5039435;28;4522;-61
2023/03/09 16:02:01;;;;;;;;;;;;;;;;;;5041190;28;4526;-72
2023/03/09 16:04:27;;;;;;;;;;;;;;;;;;5044436;28;4506;-62
2023/03/09 16:06:52;;;;;;;;;;;;;;;;;;5040180;28;4698;-61
2023/03/09 16:09:17;;;;;;;;;;;;;;;;;;5037597;28;3675;-65
2023/03/09 16:11:43;;;;;;;;;;;;;;;;;;5044258;28;4752;-65
2023/03/09 16:14:08;;;;;;;;;;;;;;;;;;5036365;28;4780;-68
2023/03/09 16:16:34;;;;;;;;;;;;;;;;;;5035400;28;4508;-69
2023/03/09 16:18:59;;;;;;;;;;;;;;;;;;5043068;28;4508;-71
2023/03/09 16:21:24;;;;;;;;;;;;;;;;;;5044616;28;1248;-69
2023/03/09 16:23:49;;;;;;;;;;;;;;;;;;5046330;28;4499;-69
2023/03/09 16:26:18;;;;;;;;;;;;;;;;;;5040442;28;4652;-67
2023/03/09 16:28:44;;;;;;;;;;;;;;;;;;5041440;28;5118;-66
2023/03/09 16:31:15;;;;;;;;;;;;;;;;;;5044356;28;4641;-70
2023/03/09 16:33:41;;;;;;;;;;;;;;;;;;5048384;28;1125;-68
2023/03/09 16:36:06;;;;;;;;;;;;;;;;;;5075198;28;5178;-65
2023/03/09 16:38:31;;;;;;;;;;;;;;;;;;5039934;28;4948;-69
2023/03/09 16:40:58;;;;;;;;;;;;;;;;;;5038812;28;4905;-69
2023/03/09 16:43:24;;;;;;;;;;;;;;;;;;5043514;28;4430;-68
2023/03/09 16:45:53;;;;;;;;;;;;;;;;;;5042440;28;5148;-68
2023/03/09 16:48:18;;;;;;;;;;;;;;;;;;5048225;28;1143;-68
2023/03/09 16:50:43;;;;;;;;;;;;;;;;;;5046652;28;4504;-68
2023/03/09 16:53:08;;;;;;;;;;;;;;;;;;5043763;28;5010;-69
2023/03/09 16:55:34;;;;;;;;;;;;;;;;;;5046810;28;4593;-68
2023/03/09 16:57:59;;;;;;;;;;;;;;;;;;5046367;28;5201;-69
2023/03/09 17:00:25;;;;;;;;;;;;;;;;;;5046569;28;1556;-70
2023/03/09 17:02:51;;;;;;;;;;;;;;;;;;5045540;28;5054;-71
2023/03/09 17:05:16;;;;;;;;;;;;;;;;;;5040260;28;5054;-67